sensor_id;sensor_type;location;lat;lon;timestamp;temperature;humidity
72772;SHT30;60894;42.544;1.516;2023-05-06T00:01:14;13.28;57.35
72772;SHT30;60894;42.544;1.516;2023-05-06T00:03:41;13.17;56.71
72772;SHT30;60894;42.544;1.516;2023-05-06T00:06:08;13.11;57.69
72772;SHT30;60894;42.544;1.516;2023-05-06T00:08:35;13.01;57.58
72772;SHT30;60894;42.544;1.516;2023-05-06T00:11:02;13.24;56.18
72772;SHT30;60894;42.544;1.516;2023-05-06T00:13:29;13.11;57.83
72772;SHT30;60894;42.544;1.516;2023-05-06T00:15:57;13.03;58.01
72772;SHT30;60894;42.544;1.516;2023-05-06T00:18:24;12.93;58.71
72772;SHT30;60894;42.544;1.516;2023-05-06T00:20:51;12.86;58.81
72772;SHT30;60894;42.544;1.516;2023-05-06T00:23:18;12.83;58.66
72772;SHT30;60894;42.544;1.516;2023-05-06T00:25:45;12.86;58.98
72772;SHT30;60894;42.544;1.516;2023-05-06T00:28:11;12.67;59.84
72772;SHT30;60894;42.544;1.516;2023-05-06T00:30:38;12.68;59.57
72772;SHT30;60894;42.544;1.516;2023-05-06T00:33:07;12.66;58.63
72772;SHT30;60894;42.544;1.516;2023-05-06T00:35:33;12.72;58.05
72772;SHT30;60894;42.544;1.516;2023-05-06T00:38:07;12.64;57.49
72772;SHT30;60894;42.544;1.516;2023-05-06T00:40:35;12.73;57.15
72772;SHT30;60894;42.544;1.516;2023-05-06T00:43:03;12.59;58.71
72772;SHT30;60894;42.544;1.516;2023-05-06T00:45:30;12.50;58.56
72772;SHT30;60894;42.544;1.516;2023-05-06T00:47:57;12.53;57.56
72772;SHT30;60894;42.544;1.516;2023-05-06T00:50:26;12.49;56.79
72772;SHT30;60894;42.544;1.516;2023-05-06T00:52:55;12.46;56.91
72772;SHT30;60894;42.544;1.516;2023-05-06T00:55:24;12.42;56.73
72772;SHT30;60894;42.544;1.516;2023-05-06T00:57:51;12.46;56.32
72772;SHT30;60894;42.544;1.516;2023-05-06T01:00:19;12.28;57.00
72772;SHT30;60894;42.544;1.516;2023-05-06T01:02:46;12.22;57.18
72772;SHT30;60894;42.544;1.516;2023-05-06T01:05:15;12.23;58.51
72772;SHT30;60894;42.544;1.516;2023-05-06T01:07:50;12.23;58.70
72772;SHT30;60894;42.544;1.516;2023-05-06T01:10:25;12.09;59.08
72772;SHT30;60894;42.544;1.516;2023-05-06T01:13:00;12.09;59.79
72772;SHT30;60894;42.544;1.516;2023-05-06T01:15:32;11.95;59.91
72772;SHT30;60894;42.544;1.516;2023-05-06T01:18:00;12.09;59.02
72772;SHT30;60894;42.544;1.516;2023-05-06T01:20:30;12.04;59.29
72772;SHT30;60894;42.544;1.516;2023-05-06T01:23:00;11.98;59.21
72772;SHT30;60894;42.544;1.516;2023-05-06T01:25:28;11.92;59.80
72772;SHT30;60894;42.544;1.516;2023-05-06T01:27:56;11.84;59.88
72772;SHT30;60894;42.544;1.516;2023-05-06T01:30:28;11.79;59.91
72772;SHT30;60894;42.544;1.516;2023-05-06T01:33:03;11.78;59.86
72772;SHT30;60894;42.544;1.516;2023-05-06T01:35:38;11.77;59.97
72772;SHT30;60894;42.544;1.516;2023-05-06T01:38:12;11.63;60.27
72772;SHT30;60894;42.544;1.516;2023-05-06T01:40:43;11.65;59.73
72772;SHT30;60894;42.544;1.516;2023-05-06T01:43:13;11.60;60.25
72772;SHT30;60894;42.544;1.516;2023-05-06T01:45:41;11.60;59.97
72772;SHT30;60894;42.544;1.516;2023-05-06T01:48:14;11.44;59.83
72772;SHT30;60894;42.544;1.516;2023-05-06T01:50:42;11.44;60.13
72772;SHT30;60894;42.544;1.516;2023-05-06T01:53:09;11.40;60.65
72772;SHT30;60894;42.544;1.516;2023-05-06T01:55:36;11.50;59.94
72772;SHT30;60894;42.544;1.516;2023-05-06T01:58:04;11.44;60.13
72772;SHT30;60894;42.544;1.516;2023-05-06T02:00:31;11.44;60.36
72772;SHT30;60894;42.544;1.516;2023-05-06T02:02:58;11.35;60.64
72772;SHT30;60894;42.544;1.516;2023-05-06T02:05:25;11.27;60.71
72772;SHT30;60894;42.544;1.516;2023-05-06T02:07:52;11.24;60.91
72772;SHT30;60894;42.544;1.516;2023-05-06T02:10:19;11.14;60.95
72772;SHT30;60894;42.544;1.516;2023-05-06T02:12:47;11.13;61.02
72772;SHT30;60894;42.544;1.516;2023-05-06T02:15:16;11.10;60.96
72772;SHT30;60894;42.544;1.516;2023-05-06T02:17:42;11.06;60.80
72772;SHT30;60894;42.544;1.516;2023-05-06T02:20:10;11.10;59.97
72772;SHT30;60894;42.544;1.516;2023-05-06T02:22:37;11.10;60.98
72772;SHT30;60894;42.544;1.516;2023-05-06T02:25:04;11.16;60.72
72772;SHT30;60894;42.544;1.516;2023-05-06T02:27:31;11.10;60.49
72772;SHT30;60894;42.544;1.516;2023-05-06T02:29:58;10.95;60.89
72772;SHT30;60894;42.544;1.516;2023-05-06T02:32:26;10.85;61.20
72772;SHT30;60894;42.544;1.516;2023-05-06T02:34:53;10.91;61.34
72772;SHT30;60894;42.544;1.516;2023-05-06T02:37:20;10.89;61.47
72772;SHT30;60894;42.544;1.516;2023-05-06T02:39:47;10.79;61.19
72772;SHT30;60894;42.544;1.516;2023-05-06T02:42:14;10.80;61.01
72772;SHT30;60894;42.544;1.516;2023-05-06T02:44:41;10.83;60.81
72772;SHT30;60894;42.544;1.516;2023-05-06T02:47:08;10.76;61.35
72772;SHT30;60894;42.544;1.516;2023-05-06T02:49:37;10.62;61.40
72772;SHT30;60894;42.544;1.516;2023-05-06T02:52:04;10.71;60.96
72772;SHT30;60894;42.544;1.516;2023-05-06T02:54:30;10.79;60.96
72772;SHT30;60894;42.544;1.516;2023-05-06T02:56:57;10.69;61.01
72772;SHT30;60894;42.544;1.516;2023-05-06T02:59:25;10.56;61.38
72772;SHT30;60894;42.544;1.516;2023-05-06T03:01:52;10.66;60.76
72772;SHT30;60894;42.544;1.516;2023-05-06T03:04:19;10.54;61.51
72772;SHT30;60894;42.544;1.516;2023-05-06T03:06:48;10.58;61.59
72772;SHT30;60894;42.544;1.516;2023-05-06T03:09:15;10.55;61.73
72772;SHT30;60894;42.544;1.516;2023-05-06T03:11:42;10.56;61.63
72772;SHT30;60894;42.544;1.516;2023-05-06T03:14:08;10.69;60.78
72772;SHT30;60894;42.544;1.516;2023-05-06T03:16:35;10.56;60.71
72772;SHT30;60894;42.544;1.516;2023-05-06T03:19:02;10.46;61.05
72772;SHT30;60894;42.544;1.516;2023-05-06T03:21:29;10.42;61.67
72772;SHT30;60894;42.544;1.516;2023-05-06T03:23:58;10.32;62.12
72772;SHT30;60894;42.544;1.516;2023-05-06T03:26:25;10.24;62.17
72772;SHT30;60894;42.544;1.516;2023-05-06T03:28:52;10.30;61.99
72772;SHT30;60894;42.544;1.516;2023-05-06T03:31:19;10.17;62.08
72772;SHT30;60894;42.544;1.516;2023-05-06T03:33:46;10.20;61.87
72772;SHT30;60894;42.544;1.516;2023-05-06T03:36:13;10.24;61.83
72772;SHT30;60894;42.544;1.516;2023-05-06T03:38:40;10.20;62.16
72772;SHT30;60894;42.544;1.516;2023-05-06T03:41:08;10.17;61.89
72772;SHT30;60894;42.544;1.516;2023-05-06T03:43:35;10.10;62.39
72772;SHT30;60894;42.544;1.516;2023-05-06T03:46:02;10.21;62.07
72772;SHT30;60894;42.544;1.516;2023-05-06T03:48:29;10.24;61.68
72772;SHT30;60894;42.544;1.516;2023-05-06T03:50:56;10.14;62.25
72772;SHT30;60894;42.544;1.516;2023-05-06T03:53:24;9.93;63.21
72772;SHT30;60894;42.544;1.516;2023-05-06T03:55:51;10.01;62.82
72772;SHT30;60894;42.544;1.516;2023-05-06T03:58:19;10.03;62.36
72772;SHT30;60894;42.544;1.516;2023-05-06T04:00:46;9.98;62.77
72772;SHT30;60894;42.544;1.516;2023-05-06T04:03:13;9.91;62.82
72772;SHT30;60894;42.544;1.516;2023-05-06T04:05:40;9.97;62.71
72772;SHT30;60894;42.544;1.516;2023-05-06T04:08:07;9.90;62.56
72772;SHT30;60894;42.544;1.516;2023-05-06T04:10:37;9.86;62.45
72772;SHT30;60894;42.544;1.516;2023-05-06T04:13:04;9.97;62.02
72772;SHT30;60894;42.544;1.516;2023-05-06T04:15:33;9.90;62.75
72772;SHT30;60894;42.544;1.516;2023-05-06T04:18:01;9.83;62.64
72772;SHT30;60894;42.544;1.516;2023-05-06T04:20:28;9.86;62.49
72772;SHT30;60894;42.544;1.516;2023-05-06T04:22:54;9.77;62.77
72772;SHT30;60894;42.544;1.516;2023-05-06T04:25:21;9.76;62.85
72772;SHT30;60894;42.544;1.516;2023-05-06T04:27:48;9.87;62.92
72772;SHT30;60894;42.544;1.516;2023-05-06T04:30:15;9.82;62.93
72772;SHT30;60894;42.544;1.516;2023-05-06T04:32:44;9.83;63.09
72772;SHT30;60894;42.544;1.516;2023-05-06T04:35:11;9.77;63.06
72772;SHT30;60894;42.544;1.516;2023-05-06T04:37:38;9.77;62.88
72772;SHT30;60894;42.544;1.516;2023-05-06T04:40:06;9.73;63.05
72772;SHT30;60894;42.544;1.516;2023-05-06T04:42:33;9.76;63.10
72772;SHT30;60894;42.544;1.516;2023-05-06T04:45:00;9.72;62.92
72772;SHT30;60894;42.544;1.516;2023-05-06T04:47:27;9.70;63.16
72772;SHT30;60894;42.544;1.516;2023-05-06T04:49:56;9.73;62.67
72772;SHT30;60894;42.544;1.516;2023-05-06T04:52:23;9.82;62.43
72772;SHT30;60894;42.544;1.516;2023-05-06T04:54:49;9.73;62.99
72772;SHT30;60894;42.544;1.516;2023-05-06T04:57:16;9.80;62.73
72772;SHT30;60894;42.544;1.516;2023-05-06T04:59:43;9.79;62.72
72772;SHT30;60894;42.544;1.516;2023-05-06T05:02:10;9.79;62.34
72772;SHT30;60894;42.544;1.516;2023-05-06T05:04:37;9.70;62.55
72772;SHT30;60894;42.544;1.516;2023-05-06T05:07:06;9.60;62.80
72772;SHT30;60894;42.544;1.516;2023-05-06T05:09:33;9.69;62.88
72772;SHT30;60894;42.544;1.516;2023-05-06T05:12:00;9.64;62.78
72772;SHT30;60894;42.544;1.516;2023-05-06T05:14:27;9.72;62.38
72772;SHT30;60894;42.544;1.516;2023-05-06T05:16:54;9.80;62.50
72772;SHT30;60894;42.544;1.516;2023-05-06T05:19:21;9.67;63.04
72772;SHT30;60894;42.544;1.516;2023-05-06T05:21:48;9.73;63.26
72772;SHT30;60894;42.544;1.516;2023-05-06T05:24:17;9.70;63.42
72772;SHT30;60894;42.544;1.516;2023-05-06T05:26:43;9.79;63.23
72772;SHT30;60894;42.544;1.516;2023-05-06T05:29:10;9.74;63.39
72772;SHT30;60894;42.544;1.516;2023-05-06T05:31:37;9.76;63.16
72772;SHT30;60894;42.544;1.516;2023-05-06T05:34:04;9.84;62.61
72772;SHT30;60894;42.544;1.516;2023-05-06T05:36:32;9.76;62.78
72772;SHT30;60894;42.544;1.516;2023-05-06T05:38:58;9.80;62.79
72772;SHT30;60894;42.544;1.516;2023-05-06T05:41:27;9.86;62.29
72772;SHT30;60894;42.544;1.516;2023-05-06T05:43:54;9.95;62.14
72772;SHT30;60894;42.544;1.516;2023-05-06T05:46:21;9.95;62.35
72772;SHT30;60894;42.544;1.516;2023-05-06T05:48:48;9.89;62.48
72772;SHT30;60894;42.544;1.516;2023-05-06T05:51:15;9.97;62.24
72772;SHT30;60894;42.544;1.516;2023-05-06T05:53:41;9.93;62.63
72772;SHT30;60894;42.544;1.516;2023-05-06T05:56:08;10.08;62.36
72772;SHT30;60894;42.544;1.516;2023-05-06T05:58:37;10.11;62.04
72772;SHT30;60894;42.544;1.516;2023-05-06T06:01:04;10.07;62.29
72772;SHT30;60894;42.544;1.516;2023-05-06T06:03:31;10.05;62.05
72772;SHT30;60894;42.544;1.516;2023-05-06T06:05:58;10.14;62.16
72772;SHT30;60894;42.544;1.516;2023-05-06T06:08:24;10.10;61.86
72772;SHT30;60894;42.544;1.516;2023-05-06T06:10:52;10.18;61.75
72772;SHT30;60894;42.544;1.516;2023-05-06T06:13:19;10.07;61.82
72772;SHT30;60894;42.544;1.516;2023-05-06T06:15:47;10.18;61.84
72772;SHT30;60894;42.544;1.516;2023-05-06T06:18:14;10.34;61.61
72772;SHT30;60894;42.544;1.516;2023-05-06T06:20:42;10.40;61.26
72772;SHT30;60894;42.544;1.516;2023-05-06T06:23:08;10.40;61.33
72772;SHT30;60894;42.544;1.516;2023-05-06T06:25:35;10.58;61.05
72772;SHT30;60894;42.544;1.516;2023-05-06T06:28:02;10.65;61.08
72772;SHT30;60894;42.544;1.516;2023-05-06T06:30:29;10.76;60.94
72772;SHT30;60894;42.544;1.516;2023-05-06T06:32:58;10.85;60.83
72772;SHT30;60894;42.544;1.516;2023-05-06T06:35:26;10.92;60.45
72772;SHT30;60894;42.544;1.516;2023-05-06T06:37:53;11.03;60.41
72772;SHT30;60894;42.544;1.516;2023-05-06T06:40:21;11.17;59.66
72772;SHT30;60894;42.544;1.516;2023-05-06T06:42:48;11.20;59.41
72772;SHT30;60894;42.544;1.516;2023-05-06T06:45:16;11.26;59.26
72772;SHT30;60894;42.544;1.516;2023-05-06T06:47:43;11.40;58.61
72772;SHT30;60894;42.544;1.516;2023-05-06T06:50:11;11.48;58.40
72772;SHT30;60894;42.544;1.516;2023-05-06T06:52:38;11.63;58.23
72772;SHT30;60894;42.544;1.516;2023-05-06T06:55:06;11.85;57.34
72772;SHT30;60894;42.544;1.516;2023-05-06T06:57:33;11.95;57.24
72772;SHT30;60894;42.544;1.516;2023-05-06T07:00:00;11.96;57.35
72772;SHT30;60894;42.544;1.516;2023-05-06T07:02:27;12.12;56.96
72772;SHT30;60894;42.544;1.516;2023-05-06T07:04:54;12.28;56.34
72772;SHT30;60894;42.544;1.516;2023-05-06T07:07:22;12.33;55.89
72772;SHT30;60894;42.544;1.516;2023-05-06T07:09:49;12.50;55.86
72772;SHT30;60894;42.544;1.516;2023-05-06T07:12:16;12.59;55.30
72772;SHT30;60894;42.544;1.516;2023-05-06T07:14:43;12.74;55.07
72772;SHT30;60894;42.544;1.516;2023-05-06T07:17:10;12.94;54.49
72772;SHT30;60894;42.544;1.516;2023-05-06T07:19:37;13.00;54.27
72772;SHT30;60894;42.544;1.516;2023-05-06T07:22:04;13.05;53.47
72772;SHT30;60894;42.544;1.516;2023-05-06T07:24:32;13.15;52.69
72772;SHT30;60894;42.544;1.516;2023-05-06T07:26:59;13.25;52.20
72772;SHT30;60894;42.544;1.516;2023-05-06T07:29:26;13.38;51.75
72772;SHT30;60894;42.544;1.516;2023-05-06T07:31:53;13.54;51.10
72772;SHT30;60894;42.544;1.516;2023-05-06T07:34:20;13.73;51.18
72772;SHT30;60894;42.544;1.516;2023-05-06T07:36:47;13.85;49.73
72772;SHT30;60894;42.544;1.516;2023-05-06T07:39:15;14.00;50.10
72772;SHT30;60894;42.544;1.516;2023-05-06T07:41:43;14.10;49.74
72772;SHT30;60894;42.544;1.516;2023-05-06T07:44:10;14.28;48.73
72772;SHT30;60894;42.544;1.516;2023-05-06T07:46:37;14.36;49.18
72772;SHT30;60894;42.544;1.516;2023-05-06T07:49:04;14.55;50.53
72772;SHT30;60894;42.544;1.516;2023-05-06T07:51:31;14.71;47.96
72772;SHT30;60894;42.544;1.516;2023-05-06T07:53:58;14.84;48.94
72772;SHT30;60894;42.544;1.516;2023-05-06T07:56:25;14.91;47.72
72772;SHT30;60894;42.544;1.516;2023-05-06T07:58:53;15.02;46.90
72772;SHT30;60894;42.544;1.516;2023-05-06T08:01:20;15.15;45.82
72772;SHT30;60894;42.544;1.516;2023-05-06T08:03:47;15.27;45.59
72772;SHT30;60894;42.544;1.516;2023-05-06T08:06:14;15.36;45.82
72772;SHT30;60894;42.544;1.516;2023-05-06T08:08:41;15.57;46.57
72772;SHT30;60894;42.544;1.516;2023-05-06T08:11:08;15.87;45.81
72772;SHT30;60894;42.544;1.516;2023-05-06T08:13:35;15.90;43.05
72772;SHT30;60894;42.544;1.516;2023-05-06T08:16:03;15.97;43.72
72772;SHT30;60894;42.544;1.516;2023-05-06T08:18:31;16.07;44.25
72772;SHT30;60894;42.544;1.516;2023-05-06T08:20:58;16.11;44.91
72772;SHT30;60894;42.544;1.516;2023-05-06T08:23:25;16.30;43.01
72772;SHT30;60894;42.544;1.516;2023-05-06T08:25:52;16.48;43.00
72772;SHT30;60894;42.544;1.516;2023-05-06T08:28:19;16.77;43.29
72772;SHT30;60894;42.544;1.516;2023-05-06T08:30:46;16.99;40.72
72772;SHT30;60894;42.544;1.516;2023-05-06T08:33:17;16.93;39.52
72772;SHT30;60894;42.544;1.516;2023-05-06T08:35:44;16.99;40.16
72772;SHT30;60894;42.544;1.516;2023-05-06T08:38:11;17.18;40.80
72772;SHT30;60894;42.544;1.516;2023-05-06T08:40:41;17.31;40.52
72772;SHT30;60894;42.544;1.516;2023-05-06T08:43:11;17.45;39.80
72772;SHT30;60894;42.544;1.516;2023-05-06T08:45:39;17.75;39.17
72772;SHT30;60894;42.544;1.516;2023-05-06T08:48:06;17.92;38.11
72772;SHT30;60894;42.544;1.516;2023-05-06T08:50:39;18.17;38.39
72772;SHT30;60894;42.544;1.516;2023-05-06T08:53:08;18.23;37.60
72772;SHT30;60894;42.544;1.516;2023-05-06T08:55:35;18.32;37.43
72772;SHT30;60894;42.544;1.516;2023-05-06T08:58:04;18.47;36.94
72772;SHT30;60894;42.544;1.516;2023-05-06T09:00:33;18.59;37.13
72772;SHT30;60894;42.544;1.516;2023-05-06T09:03:00;18.75;37.33
72772;SHT30;60894;42.544;1.516;2023-05-06T09:05:27;18.87;36.90
72772;SHT30;60894;42.544;1.516;2023-05-06T09:07:55;19.07;37.10
72772;SHT30;60894;42.544;1.516;2023-05-06T09:10:23;19.21;36.95
72772;SHT30;60894;42.544;1.516;2023-05-06T09:12:52;19.36;36.80
72772;SHT30;60894;42.544;1.516;2023-05-06T09:15:23;19.45;36.73
72772;SHT30;60894;42.544;1.516;2023-05-06T09:17:51;19.50;36.85
72772;SHT30;60894;42.544;1.516;2023-05-06T09:20:18;19.65;36.56
72772;SHT30;60894;42.544;1.516;2023-05-06T09:22:45;19.79;36.29
72772;SHT30;60894;42.544;1.516;2023-05-06T09:25:13;19.89;36.40
72772;SHT30;60894;42.544;1.516;2023-05-06T09:27:40;19.89;35.85
72772;SHT30;60894;42.544;1.516;2023-05-06T09:30:09;19.97;36.08
72772;SHT30;60894;42.544;1.516;2023-05-06T09:32:37;20.07;35.85
72772;SHT30;60894;42.544;1.516;2023-05-06T09:35:04;20.14;35.62
72772;SHT30;60894;42.544;1.516;2023-05-06T09:37:31;20.21;35.06
72772;SHT30;60894;42.544;1.516;2023-05-06T09:39:59;20.34;35.24
72772;SHT30;60894;42.544;1.516;2023-05-06T09:42:28;20.52;34.64
72772;SHT30;60894;42.544;1.516;2023-05-06T09:44:56;20.61;35.00
72772;SHT30;60894;42.544;1.516;2023-05-06T09:47:25;20.69;34.61
72772;SHT30;60894;42.544;1.516;2023-05-06T09:49:55;20.72;34.67
72772;SHT30;60894;42.544;1.516;2023-05-06T09:52:24;20.89;34.32
72772;SHT30;60894;42.544;1.516;2023-05-06T09:54:52;21.12;34.22
72772;SHT30;60894;42.544;1.516;2023-05-06T09:57:20;21.26;34.13
72772;SHT30;60894;42.544;1.516;2023-05-06T09:59:49;21.36;33.76
72772;SHT30;60894;42.544;1.516;2023-05-06T10:02:18;21.13;33.78
72772;SHT30;60894;42.544;1.516;2023-05-06T10:04:47;21.34;34.19
72772;SHT30;60894;42.544;1.516;2023-05-06T10:07:16;21.51;33.82
72772;SHT30;60894;42.544;1.516;2023-05-06T10:09:48;21.57;33.61
72772;SHT30;60894;42.544;1.516;2023-05-06T10:12:15;21.68;33.30
72772;SHT30;60894;42.544;1.516;2023-05-06T10:14:42;21.92;33.48
72772;SHT30;60894;42.544;1.516;2023-05-06T10:17:11;21.85;32.68
72772;SHT30;60894;42.544;1.516;2023-05-06T10:19:39;21.91;32.85
72772;SHT30;60894;42.544;1.516;2023-05-06T10:22:12;22.16;32.84
72772;SHT30;60894;42.544;1.516;2023-05-06T10:24:45;22.33;32.58
72772;SHT30;60894;42.544;1.516;2023-05-06T10:27:17;22.35;32.42
72772;SHT30;60894;42.544;1.516;2023-05-06T10:29:47;22.41;32.10
72772;SHT30;60894;42.544;1.516;2023-05-06T10:32:19;22.74;31.67
72772;SHT30;60894;42.544;1.516;2023-05-06T10:34:52;22.93;31.46
72772;SHT30;60894;42.544;1.516;2023-05-06T10:37:21;22.97;31.73
72772;SHT30;60894;42.544;1.516;2023-05-06T10:39:51;22.84;31.47
72772;SHT30;60894;42.544;1.516;2023-05-06T10:42:18;22.73;30.79
72772;SHT30;60894;42.544;1.516;2023-05-06T10:45:01;22.66;31.09
72772;SHT30;60894;42.544;1.516;2023-05-06T10:48:07;22.67;30.92
72772;SHT30;60894;42.544;1.516;2023-05-06T10:50:35;22.76;31.48
72772;SHT30;60894;42.544;1.516;2023-05-06T10:53:02;22.83;30.66
72772;SHT30;60894;42.544;1.516;2023-05-06T10:55:30;22.93;30.13
72772;SHT30;60894;42.544;1.516;2023-05-06T10:58:01;22.73;30.20
72772;SHT30;60894;42.544;1.516;2023-05-06T11:00:32;22.72;30.73
72772;SHT30;60894;42.544;1.516;2023-05-06T11:03:05;23.07;30.91
72772;SHT30;60894;42.544;1.516;2023-05-06T11:05:45;22.79;30.15
72772;SHT30;60894;42.544;1.516;2023-05-06T11:08:14;23.04;29.93
72772;SHT30;60894;42.544;1.516;2023-05-06T11:10:41;23.27;29.71
72772;SHT30;60894;42.544;1.516;2023-05-06T11:13:19;23.44;28.90
72772;SHT30;60894;42.544;1.516;2023-05-06T11:15:46;23.78;28.66
72772;SHT30;60894;42.544;1.516;2023-05-06T11:18:43;23.79;28.30
72772;SHT30;60894;42.544;1.516;2023-05-06T11:21:38;23.73;29.34
72772;SHT30;60894;42.544;1.516;2023-05-06T11:24:09;23.79;28.99
72772;SHT30;60894;42.544;1.516;2023-05-06T11:26:38;23.73;29.34
72772;SHT30;60894;42.544;1.516;2023-05-06T11:29:06;23.85;27.90
72772;SHT30;60894;42.544;1.516;2023-05-06T11:31:38;23.69;28.49
72772;SHT30;60894;42.544;1.516;2023-05-06T11:34:11;23.72;28.90
72772;SHT30;60894;42.544;1.516;2023-05-06T11:36:47;23.98;28.53
72772;SHT30;60894;42.544;1.516;2023-05-06T11:39:14;23.86;27.78
72772;SHT30;60894;42.544;1.516;2023-05-06T11:41:41;23.92;27.73
72772;SHT30;60894;42.544;1.516;2023-05-06T11:44:08;24.34;27.70
72772;SHT30;60894;42.544;1.516;2023-05-06T11:46:37;24.46;27.69
72772;SHT30;60894;42.544;1.516;2023-05-06T11:49:04;24.13;27.83
72772;SHT30;60894;42.544;1.516;2023-05-06T11:51:32;23.83;28.26
72772;SHT30;60894;42.544;1.516;2023-05-06T11:54:04;23.96;28.20
72772;SHT30;60894;42.544;1.516;2023-05-06T11:56:45;23.99;28.21
72772;SHT30;60894;42.544;1.516;2023-05-06T11:59:12;24.06;28.66
72772;SHT30;60894;42.544;1.516;2023-05-06T12:04:08;24.12;28.46
72772;SHT30;60894;42.544;1.516;2023-05-06T12:06:37;23.83;28.40
72772;SHT30;60894;42.544;1.516;2023-05-06T12:09:05;23.59;27.95
72772;SHT30;60894;42.544;1.516;2023-05-06T12:11:34;23.62;29.29
72772;SHT30;60894;42.544;1.516;2023-05-06T12:14:02;23.28;29.53
72772;SHT30;60894;42.544;1.516;2023-05-06T12:16:29;23.25;29.95
72772;SHT30;60894;42.544;1.516;2023-05-06T12:18:56;23.58;29.41
72772;SHT30;60894;42.544;1.516;2023-05-06T12:21:24;23.99;29.58
72772;SHT30;60894;42.544;1.516;2023-05-06T12:23:53;24.24;28.50
72772;SHT30;60894;42.544;1.516;2023-05-06T12:26:20;24.40;28.91
72772;SHT30;60894;42.544;1.516;2023-05-06T12:29:03;24.26;28.94
72772;SHT30;60894;42.544;1.516;2023-05-06T12:31:31;24.05;29.07
72772;SHT30;60894;42.544;1.516;2023-05-06T12:33:58;23.66;29.54
72772;SHT30;60894;42.544;1.516;2023-05-06T12:36:25;24.09;28.62
72772;SHT30;60894;42.544;1.516;2023-05-06T12:38:54;24.22;28.37
72772;SHT30;60894;42.544;1.516;2023-05-06T12:41:22;24.78;27.60
72772;SHT30;60894;42.544;1.516;2023-05-06T12:43:50;25.18;26.71
72772;SHT30;60894;42.544;1.516;2023-05-06T12:46:18;25.08;27.58
72772;SHT30;60894;42.544;1.516;2023-05-06T12:49:01;24.39;28.32
72772;SHT30;60894;42.544;1.516;2023-05-06T12:51:28;24.17;28.48
72772;SHT30;60894;42.544;1.516;2023-05-06T12:53:58;24.50;29.00
72772;SHT30;60894;42.544;1.516;2023-05-06T12:56:25;24.80;27.63
72772;SHT30;60894;42.544;1.516;2023-05-06T12:58:56;24.92;27.79
72772;SHT30;60894;42.544;1.516;2023-05-06T13:01:23;25.02;27.92
72772;SHT30;60894;42.544;1.516;2023-05-06T13:03:50;25.18;27.53
72772;SHT30;60894;42.544;1.516;2023-05-06T13:06:17;25.24;26.11
72772;SHT30;60894;42.544;1.516;2023-05-06T13:08:44;25.16;25.58
72772;SHT30;60894;42.544;1.516;2023-05-06T13:11:12;24.59;26.94
72772;SHT30;60894;42.544;1.516;2023-05-06T13:13:39;24.75;26.74
72772;SHT30;60894;42.544;1.516;2023-05-06T13:16:07;25.36;26.06
72772;SHT30;60894;42.544;1.516;2023-05-06T13:18:34;25.21;25.67
72772;SHT30;60894;42.544;1.516;2023-05-06T13:21:01;25.87;25.41
72772;SHT30;60894;42.544;1.516;2023-05-06T13:23:29;26.55;24.36
72772;SHT30;60894;42.544;1.516;2023-05-06T13:25:58;25.96;24.75
72772;SHT30;60894;42.544;1.516;2023-05-06T13:28:28;25.83;24.66
72772;SHT30;60894;42.544;1.516;2023-05-06T13:30:56;25.94;24.65
72772;SHT30;60894;42.544;1.516;2023-05-06T13:33:23;25.72;24.33
72772;SHT30;60894;42.544;1.516;2023-05-06T13:35:50;25.79;23.78
72772;SHT30;60894;42.544;1.516;2023-05-06T13:38:17;25.14;23.77
72772;SHT30;60894;42.544;1.516;2023-05-06T13:40:45;24.68;24.21
72772;SHT30;60894;42.544;1.516;2023-05-06T13:43:12;24.67;24.94
72772;SHT30;60894;42.544;1.516;2023-05-06T13:45:41;24.44;24.47
72772;SHT30;60894;42.544;1.516;2023-05-06T13:48:09;24.64;24.10
72772;SHT30;60894;42.544;1.516;2023-05-06T13:50:36;24.91;23.48
72772;SHT30;60894;42.544;1.516;2023-05-06T13:53:03;24.81;23.95
72772;SHT30;60894;42.544;1.516;2023-05-06T13:55:30;24.52;22.27
72772;SHT30;60894;42.544;1.516;2023-05-06T13:57:57;24.68;22.55
72772;SHT30;60894;42.544;1.516;2023-05-06T14:00:24;24.71;22.06
72772;SHT30;60894;42.544;1.516;2023-05-06T14:02:52;24.91;23.14
72772;SHT30;60894;42.544;1.516;2023-05-06T14:05:19;24.75;22.40
72772;SHT30;60894;42.544;1.516;2023-05-06T14:07:46;24.74;22.98
72772;SHT30;60894;42.544;1.516;2023-05-06T14:10:14;24.71;23.04
72772;SHT30;60894;42.544;1.516;2023-05-06T14:12:41;25.18;22.43
72772;SHT30;60894;42.544;1.516;2023-05-06T14:15:09;25.33;22.47
72772;SHT30;60894;42.544;1.516;2023-05-06T14:17:37;25.72;22.51
72772;SHT30;60894;42.544;1.516;2023-05-06T14:20:07;25.86;22.23
72772;SHT30;60894;42.544;1.516;2023-05-06T14:22:35;25.69;22.00
72772;SHT30;60894;42.544;1.516;2023-05-06T14:25:02;25.62;23.34
72772;SHT30;60894;42.544;1.516;2023-05-06T14:27:29;26.07;23.36
72772;SHT30;60894;42.544;1.516;2023-05-06T14:29:56;26.38;23.63
72772;SHT30;60894;42.544;1.516;2023-05-06T14:32:23;25.86;23.98
72772;SHT30;60894;42.544;1.516;2023-05-06T14:34:49;25.53;24.39
72772;SHT30;60894;42.544;1.516;2023-05-06T14:37:18;25.92;24.04
72772;SHT30;60894;42.544;1.516;2023-05-06T14:39:45;25.72;24.06
72772;SHT30;60894;42.544;1.516;2023-05-06T14:42:12;25.38;24.74
72772;SHT30;60894;42.544;1.516;2023-05-06T14:44:39;24.92;25.22
72772;SHT30;60894;42.544;1.516;2023-05-06T14:47:07;24.57;25.46
72772;SHT30;60894;42.544;1.516;2023-05-06T14:49:34;24.14;26.37
72772;SHT30;60894;42.544;1.516;2023-05-06T14:52:01;23.71;26.86
72772;SHT30;60894;42.544;1.516;2023-05-06T14:54:30;23.61;27.17
72772;SHT30;60894;42.544;1.516;2023-05-06T14:56:57;23.59;27.35
72772;SHT30;60894;42.544;1.516;2023-05-06T14:59:27;23.48;27.59
72772;SHT30;60894;42.544;1.516;2023-05-06T15:01:54;23.50;27.69
72772;SHT30;60894;42.544;1.516;2023-05-06T15:04:23;23.51;27.60
72772;SHT30;60894;42.544;1.516;2023-05-06T15:06:50;23.41;27.72
72772;SHT30;60894;42.544;1.516;2023-05-06T15:09:17;23.40;28.35
72772;SHT30;60894;42.544;1.516;2023-05-06T15:11:45;23.59;27.72
72772;SHT30;60894;42.544;1.516;2023-05-06T15:14:12;23.88;27.91
72772;SHT30;60894;42.544;1.516;2023-05-06T15:16:39;23.73;27.91
72772;SHT30;60894;42.544;1.516;2023-05-06T15:19:06;23.55;28.03
72772;SHT30;60894;42.544;1.516;2023-05-06T15:21:33;23.44;28.07
72772;SHT30;60894;42.544;1.516;2023-05-06T15:24:00;23.35;28.50
72772;SHT30;60894;42.544;1.516;2023-05-06T15:26:27;23.06;28.67
72772;SHT30;60894;42.544;1.516;2023-05-06T15:28:55;22.84;28.86
72772;SHT30;60894;42.544;1.516;2023-05-06T15:31:22;22.72;29.75
72772;SHT30;60894;42.544;1.516;2023-05-06T15:33:50;22.67;30.49
72772;SHT30;60894;42.544;1.516;2023-05-06T15:36:17;22.16;34.22
72772;SHT30;60894;42.544;1.516;2023-05-06T15:38:56;21.92;37.82
72772;SHT30;60894;42.544;1.516;2023-05-06T15:41:25;21.36;37.02